Time;durP1;ratioP1;P1;durP2;ratioP2;P2;SDS_P1;SDS_P2;PMS_P1;PMS_P2;Temp;Humidity;BMP_temperature;BMP_pressure;BME280_temperature;BME280_humidity;BME280_pressure;Samples;Min_cycle;Max_cycle;Signal;HPM_P1;HPM_P2
2022/09/19 00:00:26;;;;;;;9.10;1.83;;;8.90;99.90;;;;;;7368005;32;20570;-60
2022/09/19 00:04:31;;;;;;;12.20;1.77;;;8.90;99.90;;;;;;7367695;32;20156;-60
2022/09/19 00:08:33;;;;;;;5.90;1.58;;;9.00;99.90;;;;;;7363783;32;20235;-60
2022/09/19 00:12:35;;;;;;;10.88;1.85;;;9.00;99.90;;;;;;7366764;32;20099;-60
2022/09/19 00:16:38;;;;;;;12.02;1.62;;;9.00;99.90;;;;;;7363458;32;20512;-60
2022/09/19 00:20:49;;;;;;;9.48;1.95;;;9.10;99.90;;;;;;7365437;32;20508;-61
2022/09/19 00:24:51;;;;;;;13.45;1.90;;;9.10;99.90;;;;;;7367186;32;20122;-60
2022/09/19 00:28:53;;;;;;;8.00;2.17;;;9.10;99.90;;;;;;7362709;32;20257;-60
2022/09/19 00:32:56;;;;;;;10.63;2.55;;;9.10;99.90;;;;;;7374296;32;20104;-60
2022/09/19 00:37:06;;;;;;;10.27;2.37;;;9.10;99.90;;;;;;7367274;32;20115;-60
2022/09/19 00:41:08;;;;;;;13.18;1.65;;;9.10;99.90;;;;;;7363700;32;20156;-60
2022/09/19 00:45:15;;;;;;;19.85;2.03;;;9.10;99.90;;;;;;7359949;32;20115;-61
2022/09/19 00:49:18;;;;;;;10.73;2.03;;;9.10;99.90;;;;;;7361658;32;20103;-60
2022/09/19 00:53:22;;;;;;;13.43;1.90;;;9.10;99.90;;;;;;7362804;32;20117;-61
2022/09/19 00:57:35;;;;;;;16.52;2.05;;;9.20;99.90;;;;;;7365509;32;20099;-60
2022/09/19 01:01:38;;;;;;;9.43;1.98;;;9.20;99.90;;;;;;7365330;32;20106;-60
2022/09/19 01:05:45;;;;;;;18.37;2.22;;;9.30;99.90;;;;;;7369962;32;20508;-60
2022/09/19 01:10:11;;;;;;;8.10;1.90;;;9.20;99.90;;;;;;7363069;32;20121;-60
2022/09/19 01:14:53;;;;;;;20.83;2.80;;;9.20;99.90;;;;;;7365701;32;20111;-60
2022/09/19 01:19:09;;;;;;;13.38;1.90;;;9.20;99.90;;;;;;7372846;32;20091;-60
2022/09/19 01:23:32;;;;;;;14.55;2.15;;;9.20;99.90;;;;;;7364629;32;20107;-60
2022/09/19 01:27:53;;;;;;;13.35;2.03;;;9.20;99.90;;;;;;7364691;32;20229;-60
2022/09/19 01:31:58;;;;;;;13.18;2.00;;;9.10;99.90;;;;;;7357880;32;20103;-60
2022/09/19 01:36:00;;;;;;;19.50;2.60;;;9.10;99.90;;;;;;7366174;32;20137;-61
2022/09/19 01:40:05;;;;;;;16.58;2.80;;;9.10;99.90;;;;;;7366162;32;20126;-60
2022/09/19 01:44:16;;;;;;;14.85;2.50;;;9.10;99.90;;;;;;7364583;32;20135;-60
2022/09/19 01:48:42;;;;;;;16.02;2.70;;;9.20;99.90;;;;;;7358714;32;20672;-60
2022/09/19 01:52:56;;;;;;;15.07;2.50;;;9.20;99.90;;;;;;7362366;32;20115;-60
2022/09/19 01:57:07;;;;;;;17.87;2.65;;;9.20;99.90;;;;;;7368322;32;20121;-60
2022/09/19 02:01:20;;;;;;;14.87;2.60;;;9.20;99.90;;;;;;7368975;32;20121;-60
2022/09/19 02:05:50;;;;;;;14.87;2.00;;;9.20;99.90;;;;;;7367846;32;20096;-60
2022/09/19 02:10:16;;;;;;;16.67;2.10;;;9.20;99.90;;;;;;7362609;32;20517;-60
2022/09/19 02:14:21;;;;;;;12.30;1.73;;;9.10;99.90;;;;;;7366067;32;20685;-59
2022/09/19 02:18:26;;;;;;;10.70;2.03;;;9.10;99.90;;;;;;7355823;32;20666;-59
2022/09/19 02:22:34;;;;;;;11.77;2.58;;;9.10;99.90;;;;;;7368099;32;20103;-60
2022/09/19 02:26:39;;;;;;;15.13;2.15;;;9.00;99.90;;;;;;7356972;32;20117;-60
2022/09/19 02:30:42;;;;;;;15.82;2.30;;;8.90;99.90;;;;;;7360403;32;20103;-61
2022/09/19 02:34:44;;;;;;;9.55;1.92;;;8.90;99.90;;;;;;7366426;32;20215;-60
2022/09/19 02:38:59;;;;;;;14.07;2.08;;;8.90;99.90;;;;;;7362101;32;20121;-61
2022/09/19 02:43:14;;;;;;;11.27;2.15;;;8.90;99.90;;;;;;7367898;32;20241;-60
2022/09/19 02:47:30;;;;;;;13.62;2.33;;;9.00;99.90;;;;;;7363379;32;20191;-60
2022/09/19 02:51:38;;;;;;;9.00;1.67;;;8.90;99.90;;;;;;7360582;32;20410;-60
2022/09/19 02:55:49;;;;;;;15.07;2.12;;;8.80;99.90;;;;;;7362164;32;20555;-60
2022/09/19 02:59:58;;;;;;;14.90;1.87;;;8.90;99.90;;;;;;7361336;32;20580;-60
2022/09/19 03:04:12;;;;;;;11.95;2.15;;;8.80;99.90;;;;;;7357310;32;20483;-60
2022/09/19 03:08:15;;;;;;;12.85;2.40;;;8.70;99.90;;;;;;7358719;32;20246;-60
2022/09/19 03:12:23;;;;;;;13.75;2.70;;;8.70;99.90;;;;;;7360537;32;20108;-60
2022/09/19 03:16:35;;;;;;;9.57;1.75;;;8.70;99.90;;;;;;7368325;32;20117;-60
2022/09/19 03:20:38;;;;;;;13.32;1.85;;;8.60;99.90;;;;;;7365319;32;20136;-60
2022/09/19 03:24:41;;;;;;;20.67;3.35;;;8.60;99.90;;;;;;7368969;32;20121;-60
2022/09/19 03:28:43;;;;;;;12.02;1.90;;;8.50;99.90;;;;;;7373761;32;20214;-60
2022/09/19 03:32:45;;;;;;;10.27;1.92;;;8.60;99.90;;;;;;7370860;32;20111;-60
2022/09/19 03:36:47;;;;;;;15.55;3.08;;;8.60;99.90;;;;;;7360028;32;20099;-60
2022/09/19 03:40:49;;;;;;;14.90;1.90;;;8.70;99.90;;;;;;7371147;32;20129;-60
2022/09/19 03:44:52;;;;;;;18.37;2.03;;;8.60;99.90;;;;;;7373490;32;20360;-60
2022/09/19 03:48:54;;;;;;;12.10;2.50;;;8.60;99.90;;;;;;7370896;32;20218;-60
2022/09/19 03:52:58;;;;;;;16.00;2.17;;;8.60;99.90;;;;;;7363409;32;20527;-60
2022/09/19 03:57:00;;;;;;;12.15;1.95;;;8.60;99.90;;;;;;7363553;32;20617;-59
2022/09/19 04:01:01;;;;;;;9.38;1.92;;;8.50;99.90;;;;;;7367758;32;20176;-59
2022/09/19 04:05:03;;;;;;;17.23;2.08;;;8.60;99.90;;;;;;7368249;32;20189;-60
2022/09/19 04:09:05;;;;;;;10.63;1.80;;;8.60;99.90;;;;;;7368809;32;20122;-60
2022/09/19 04:13:07;;;;;;;17.05;2.25;;;8.40;99.90;;;;;;7366487;32;20183;-60
2022/09/19 04:17:10;;;;;;;16.83;2.40;;;8.30;99.90;;;;;;7362609;32;20103;-60
2022/09/19 04:21:27;;;;;;;11.07;2.22;;;8.30;99.90;;;;;;7360209;32;20222;-61
2022/09/19 04:25:32;;;;;;;15.88;1.90;;;8.30;99.90;;;;;;7357067;32;20233;-60
2022/09/19 04:29:35;;;;;;;13.55;2.00;;;8.20;99.90;;;;;;7355305;32;20217;-60
2022/09/19 04:33:37;;;;;;;11.18;2.20;;;8.10;99.90;;;;;;7355026;32;20171;-60
2022/09/19 04:37:39;;;;;;;13.27;1.90;;;8.10;99.90;;;;;;7358888;32;20122;-60
2022/09/19 04:41:42;;;;;;;9.45;1.75;;;8.10;99.90;;;;;;7358547;32;20489;-60
2022/09/19 04:45:47;;;;;;;14.10;2.20;;;8.00;99.90;;;;;;7365223;32;20198;-60
2022/09/19 04:49:49;;;;;;;8.75;2.00;;;8.10;99.90;;;;;;7358607;32;20129;-60
2022/09/19 04:53:51;;;;;;;13.90;2.08;;;8.10;99.90;;;;;;7357967;32;20130;-62
2022/09/19 04:57:54;;;;;;;12.95;2.20;;;8.20;99.90;;;;;;7358490;32;20195;-63
2022/09/19 05:01:57;;;;;;;14.10;2.05;;;8.20;99.90;;;;;;7355654;32;20095;-62
2022/09/19 05:06:00;;;;;;;17.75;2.50;;;8.30;99.90;;;;;;7357447;32;20175;-62
2022/09/19 05:10:02;;;;;;;13.40;1.95;;;8.30;99.90;;;;;;7370726;32;20242;-62
2022/09/19 05:14:04;;;;;;;10.85;2.10;;;8.30;99.90;;;;;;7351721;32;20174;-63
2022/09/19 05:18:06;;;;;;;11.95;1.98;;;8.30;99.90;;;;;;7355981;32;20125;-66
2022/09/19 05:22:07;;;;;;;17.15;2.30;;;8.30;99.90;;;;;;7356392;32;20269;-65
2022/09/19 05:26:15;;;;;;;16.45;2.37;;;8.30;99.90;;;;;;7362971;32;20099;-67
2022/09/19 05:30:16;;;;;;;13.88;2.47;;;8.40;99.90;;;;;;7353799;32;20103;-65
2022/09/19 05:34:18;;;;;;;14.23;2.17;;;8.30;99.90;;;;;;7358201;32;20240;-64
2022/09/19 05:38:20;;;;;;;17.10;2.03;;;8.30;99.90;;;;;;7357729;32;20221;-68
2022/09/19 05:42:21;;;;;;;17.67;2.22;;;8.30;99.90;;;;;;7365572;32;20106;-65
2022/09/19 05:46:23;;;;;;;11.75;1.90;;;8.30;99.90;;;;;;7369268;32;20530;-65
2022/09/19 05:50:30;;;;;;;11.83;2.50;;;8.30;99.90;;;;;;7365576;32;20095;-65
2022/09/19 05:54:32;;;;;;;16.55;2.92;;;8.40;99.90;;;;;;7363685;32;20110;-65
2022/09/19 05:58:35;;;;;;;13.43;2.33;;;8.50;99.90;;;;;;7368106;32;20262;-65
2022/09/19 06:02:37;;;;;;;15.60;2.55;;;8.50;99.90;;;;;;7374947;32;20152;-65
2022/09/19 06:06:38;;;;;;;15.75;1.98;;;8.50;99.90;;;;;;7377696;32;20126;-67
2022/09/19 06:10:42;;;;;;;7.57;2.35;;;8.50;99.90;;;;;;7369901;32;20535;-66
2022/09/19 06:14:49;;;;;;;19.73;2.37;;;8.50;99.90;;;;;;7373657;32;20584;-66
2022/09/19 06:18:51;;;;;;;11.55;3.03;;;8.60;99.90;;;;;;7373922;32;20213;-65
2022/09/19 06:23:01;;;;;;;14.85;2.92;;;8.70;99.90;;;;;;7380226;32;20645;-65
2022/09/19 06:27:03;;;;;;;11.30;1.77;;;8.70;99.90;;;;;;7372280;32;20209;-65
2022/09/19 06:31:07;;;;;;;13.13;2.37;;;8.70;99.90;;;;;;7362779;32;20133;-65
2022/09/19 06:35:09;;;;;;;12.15;2.45;;;8.70;99.90;;;;;;7367075;32;20535;-65
2022/09/19 06:39:11;;;;;;;12.52;2.53;;;8.70;99.90;;;;;;7364316;32;20125;-65
2022/09/19 06:43:13;;;;;;;17.00;2.78;;;8.70;99.90;;;;;;7372075;32;20148;-65
2022/09/19 06:47:14;;;;;;;9.32;2.65;;;8.70;99.90;;;;;;7365940;32;20229;-65
2022/09/19 06:51:16;;;;;;;10.98;2.30;;;8.80;99.90;;;;;;7373687;32;20099;-65
2022/09/19 06:55:18;;;;;;;18.00;2.78;;;8.80;99.90;;;;;;7372068;32;20111;-65
2022/09/19 06:59:20;;;;;;;17.08;3.28;;;8.90;99.90;;;;;;7377826;32;20111;-66
2022/09/19 07:03:21;;;;;;;16.85;3.47;;;9.00;99.90;;;;;;7368552;32;20111;-65
2022/09/19 07:07:23;;;;;;;20.48;4.25;;;9.00;99.90;;;;;;7377546;32;20133;-65
2022/09/19 07:11:25;;;;;;;17.27;3.10;;;9.10;99.90;;;;;;7372147;32;20219;-65
2022/09/19 07:15:30;;;;;;;18.35;3.60;;;9.20;99.90;;;;;;7372333;32;20125;-65
2022/09/19 07:19:32;;;;;;;19.08;3.08;;;9.50;99.90;;;;;;7373115;32;20742;-65
2022/09/19 07:23:33;;;;;;;15.32;3.35;;;9.80;99.90;;;;;;7370482;32;20224;-65
2022/09/19 07:27:36;;;;;;;16.17;3.45;;;10.10;99.90;;;;;;7373050;32;20221;-65
2022/09/19 07:31:37;;;;;;;17.83;4.03;;;10.40;99.90;;;;;;7368921;32;20623;-65
2022/09/19 07:35:43;;;;;;;18.05;3.83;;;10.60;99.90;;;;;;7370680;32;20119;-65
2022/09/19 07:39:44;;;;;;;14.07;3.83;;;10.80;99.90;;;;;;7373082;32;20224;-64
2022/09/19 07:44:02;;;;;;;10.52;3.45;;;11.00;99.90;;;;;;7372783;32;20152;-65
2022/09/19 07:48:04;;;;;;;19.83;3.37;;;11.20;99.90;;;;;;7371570;32;20108;-65
2022/09/19 07:52:06;;;;;;;13.38;3.42;;;11.30;99.90;;;;;;7363881;32;20354;-67
2022/09/19 07:56:10;;;;;;;9.57;2.95;;;11.50;99.90;;;;;;7366924;32;20111;-65
2022/09/19 08:00:12;;;;;;;11.90;3.08;;;11.70;99.90;;;;;;7360767;32;20118;-64
2022/09/19 08:04:14;;;;;;;17.55;2.78;;;11.80;99.90;;;;;;7359062;32;20217;-65
2022/09/19 08:08:17;;;;;;;11.52;3.05;;;12.00;99.90;;;;;;7355204;32;20239;-65
2022/09/19 08:12:19;;;;;;;17.25;3.65;;;12.10;99.90;;;;;;7357196;32;20210;-65
2022/09/19 08:16:21;;;;;;;14.25;3.40;;;12.30;99.90;;;;;;7364371;32;20751;-65
2022/09/19 08:20:27;;;;;;;15.70;3.15;;;12.50;99.90;;;;;;7358385;32;20143;-64
2022/09/19 08:24:29;;;;;;;14.82;2.40;;;12.70;99.90;;;;;;7358192;32;20285;-65
2022/09/19 08:28:31;;;;;;;8.50;1.65;;;12.80;99.90;;;;;;7352797;32;20214;-65
2022/09/19 08:32:33;;;;;;;16.12;2.80;;;12.80;99.90;;;;;;7361210;32;20130;-64
2022/09/19 08:36:36;;;;;;;14.48;2.22;;;12.90;99.90;;;;;;7365792;32;20205;-64
2022/09/19 08:40:43;;;;;;;12.73;2.97;;;13.00;99.90;;;;;;7367426;32;20111;-65
2022/09/19 08:45:15;;;;;;;10.88;2.85;;;13.20;99.90;;;;;;7365720;32;20197;-64
2022/09/19 08:49:32;;;;;;;10.68;2.55;;;13.20;99.90;;;;;;7365581;32;20198;-65
2022/09/19 08:53:41;;;;;;;13.15;3.55;;;13.30;99.90;;;;;;7365105;32;20697;-64
2022/09/19 08:58:00;;;;;;;14.87;2.97;;;13.50;99.90;;;;;;7367863;32;20131;-65
2022/09/19 09:02:21;;;;;;;11.43;2.30;;;13.70;99.90;;;;;;7358672;32;20208;-64
2022/09/19 09:07:01;;;;;;;12.77;2.70;;;13.80;99.90;;;;;;7360955;32;20118;-65
2022/09/19 09:11:24;;;;;;;12.80;1.98;;;13.80;99.90;;;;;;7336537;32;20145;-64
2022/09/19 09:15:58;;;;;;;15.20;1.80;;;13.90;99.90;;;;;;7359037;32;20276;-65
2022/09/19 09:20:27;;;;;;;14.65;2.00;;;14.00;99.90;;;;;;7360760;32;20130;-65
2022/09/19 09:24:38;;;;;;;10.40;1.60;;;13.80;99.90;;;;;;7358143;32;20129;-65
2022/09/19 09:28:47;;;;;;;10.38;2.00;;;13.70;99.90;;;;;;7359750;32;20115;-65
2022/09/19 09:32:54;;;;;;;9.13;1.75;;;13.70;99.90;;;;;;7359760;32;20111;-65
2022/09/19 09:37:05;;;;;;;13.75;1.98;;;13.70;99.90;;;;;;7362489;32;20235;-65
2022/09/19 09:41:47;;;;;;;13.18;1.45;;;13.80;99.90;;;;;;7363478;32;20122;-65
2022/09/19 09:45:51;;;;;;;10.90;1.83;;;13.90;99.90;;;;;;7364392;32;20171;-65
2022/09/19 09:50:00;;;;;;;10.48;1.70;;;14.10;99.90;;;;;;7366027;32;20099;-65
2022/09/19 09:58:57;;;;;;;10.85;1.70;;;14.10;99.90;;;;;;7362849;32;20111;-65
2022/09/19 10:03:39;;;;;;;9.35;2.03;;;14.40;99.90;;;;;;7361041;32;20110;-64
2022/09/19 10:08:01;;;;;;;8.13;1.45;;;14.80;99.90;;;;;;7361514;32;20095;-64
2022/09/19 10:12:21;;;;;;;10.90;1.35;;;14.80;99.90;;;;;;7358534;32;20095;-64
2022/09/19 10:16:46;;;;;;;7.40;1.10;;;14.70;99.90;;;;;;7362557;32;20130;-63
2022/09/19 10:20:51;;;;;;;8.43;1.83;;;14.90;99.90;;;;;;7359699;32;20225;-63
2022/09/19 10:24:56;;;;;;;6.65;0.90;;;15.20;99.90;;;;;;7363148;32;20107;-64
2022/09/19 10:29:00;;;;;;;8.90;1.37;;;15.20;99.90;;;;;;7361460;32;20103;-63
2022/09/19 10:33:28;;;;;;;7.70;1.12;;;15.20;99.90;;;;;;7363162;32;20112;-64
2022/09/19 10:37:29;;;;;;;;;;;15.20;99.90;;;;;;7359481;32;20130;-64
2022/09/19 10:41:35;;;;;;;7.12;1.12;;;15.40;99.90;;;;;;7364437;32;20010;-64
2022/09/19 10:45:45;;;;;;;6.85;1.10;;;15.60;99.90;;;;;;7355924;32;20767;-64
2022/09/19 10:49:48;;;;;;;8.98;1.20;;;15.70;99.90;;;;;;7357342;32;20095;-64
2022/09/19 10:53:55;;;;;;;9.57;1.58;;;15.80;99.90;;;;;;7367548;32;20127;-64
2022/09/19 10:58:19;;;;;;;8.32;1.83;;;16.00;99.90;;;;;;7357958;32;20132;-63
2022/09/19 11:02:27;;;;;;;15.95;1.60;;;16.00;99.90;;;;;;7364165;32;20507;-63
2022/09/19 11:06:31;;;;;;;10.50;1.77;;;15.90;99.90;;;;;;7366024;32;20110;-63
2022/09/19 11:10:37;;;;;;;14.40;1.62;;;15.60;99.90;;;;;;7362449;32;20487;-63
2022/09/19 11:14:41;;;;;;;5.45;0.80;;;15.40;99.90;;;;;;7368482;32;20474;-63
2022/09/19 11:18:57;;;;;;;5.78;0.73;;;15.10;99.90;;;;;;7366824;32;20583;-63
2022/09/19 11:23:35;;;;;;;7.87;1.00;;;15.10;99.90;;;;;;7366725;32;20133;-63
2022/09/19 11:28:04;;;;;;;4.97;0.85;;;15.10;99.90;;;;;;7361753;32;20447;-63
2022/09/19 11:32:20;;;;;;;10.15;1.25;;;15.30;99.90;;;;;;7361699;32;20120;-63
2022/09/19 11:37:25;;;;;;;4.93;1.00;;;15.70;99.90;;;;;;7372424;32;20098;-63
2022/09/19 11:41:27;;;;;;;5.15;0.80;;;16.20;99.90;;;;;;7353921;32;20314;-63
2022/09/19 11:45:53;;;;;;;5.60;0.80;;;16.60;99.90;;;;;;7357778;32;20121;-64
2022/09/19 11:50:08;;;;;;;6.90;0.73;;;16.60;99.90;;;;;;7364959;32;20110;-63
2022/09/19 11:54:57;;;;;;;5.60;0.80;;;14.90;99.90;;;;;;7354504;32;20197;-63
2022/09/19 11:59:03;;;;;;;5.45;0.70;;;13.60;99.90;;;;;;7363431;32;20126;-65
2022/09/19 12:03:22;;;;;;;4.50;0.70;;;13.20;99.90;;;;;;7363397;32;20212;-65
2022/09/19 12:07:47;;;;;;;6.72;0.90;;;13.00;99.90;;;;;;7363084;32;20579;-65
2022/09/19 12:12:00;;;;;;;3.53;0.93;;;12.80;99.90;;;;;;7365173;32;20119;-64
2022/09/19 12:16:10;;;;;;;3.85;0.82;;;12.70;99.90;;;;;;7364964;32;20265;-64
2022/09/19 12:20:23;;;;;;;2.97;0.75;;;12.50;99.90;;;;;;7359404;32;20194;-65
2022/09/19 12:29:06;;;;;;;4.53;0.75;;;12.60;99.90;;;;;;7359285;32;20217;-64
2022/09/19 12:33:24;;;;;;;1.37;0.60;;;12.70;99.90;;;;;;7362930;32;20440;-64
2022/09/19 12:38:10;;;;;;;1.48;0.52;;;12.80;99.90;;;;;;7355205;32;20149;-64
2022/09/19 12:42:26;;;;;;;2.92;0.95;;;13.10;99.90;;;;;;7351854;32;20760;-64
2022/09/19 12:46:34;;;;;;;3.97;0.98;;;13.10;99.90;;;;;;7368304;32;20129;-64
2022/09/19 12:50:41;;;;;;;2.83;0.70;;;13.10;99.90;;;;;;7361598;32;20197;-64
2022/09/19 12:55:07;;;;;;;3.00;0.70;;;13.20;99.90;;;;;;7363382;32;20230;-64
2022/09/19 12:59:20;;;;;;;3.17;0.62;;;13.50;99.90;;;;;;7343244;32;20129;-64
2022/09/19 13:03:36;;;;;;;2.47;0.68;;;13.60;99.90;;;;;;7360811;32;20232;-63
2022/09/19 13:07:39;;;;;;;3.17;0.52;;;13.60;99.90;;;;;;7359697;32;20261;-63
2022/09/19 13:12:03;;;;;;;3.95;0.85;;;13.70;99.90;;;;;;7367680;32;20099;-64
2022/09/19 13:16:11;;;;;;;2.05;0.60;;;13.80;99.90;;;;;;7355855;32;20417;-63
2022/09/19 13:24:57;;;;;;;7.20;1.40;;;13.90;99.90;;;;;;7366523;32;20563;-63
2022/09/19 13:29:00;;;;;;;6.03;1.00;;;13.90;99.90;;;;;;7359774;32;20524;-64
2022/09/19 13:33:02;;;;;;;6.78;1.00;;;13.70;99.90;;;;;;7365497;32;20126;-64
2022/09/19 13:37:25;;;;;;;4.95;0.85;;;13.60;99.90;;;;;;7360067;32;20116;-64
2022/09/19 13:41:36;;;;;;;6.68;1.62;;;13.40;99.90;;;;;;7360022;32;20202;-64
2022/09/19 13:45:45;;;;;;;6.43;1.10;;;13.40;99.90;;;;;;7362425;32;20225;-64
2022/09/19 13:49:55;;;;;;;8.20;1.35;;;13.40;99.90;;;;;;7359290;32;20095;-65
2022/09/19 13:54:20;;;;;;;7.32;0.75;;;13.40;99.90;;;;;;7364680;32;20692;-68
2022/09/19 13:58:34;;;;;;;3.50;0.75;;;13.40;99.90;;;;;;7357467;32;20139;-59
2022/09/19 14:02:42;;;;;;;2.78;0.60;;;13.40;99.90;;;;;;7358976;32;20103;-57
2022/09/19 14:06:55;;;;;;;2.37;0.60;;;13.40;99.90;;;;;;7357441;32;20114;-58
2022/09/19 14:11:30;;;;;;;6.25;0.70;;;13.50;99.90;;;;;;7356847;32;20659;-57
2022/09/19 14:15:41;;;;;;;6.25;0.93;;;13.50;99.90;;;;;;7357250;32;20117;-65
2022/09/19 14:19:53;;;;;;;6.53;0.90;;;13.70;99.90;;;;;;7357640;32;20490;-65
2022/09/19 14:24:17;;;;;;;7.28;0.80;;;13.60;99.90;;;;;;7362283;32;20103;-66
2022/09/19 14:28:34;;;;;;;5.15;0.90;;;13.60;99.90;;;;;;7362196;32;20140;-65
2022/09/19 14:33:11;;;;;;;5.55;1.00;;;13.60;99.90;;;;;;7359857;32;20148;-65
2022/09/19 14:37:29;;;;;;;4.65;1.12;;;13.60;99.90;;;;;;7343548;32;20566;-65
2022/09/19 14:41:59;;;;;;;6.18;0.80;;;13.70;99.90;;;;;;7359453;32;20528;-65
2022/09/19 14:46:34;;;;;;;6.28;1.15;;;14.10;99.90;;;;;;7355999;32;20216;-65
2022/09/19 14:50:43;;;;;;;7.20;0.77;;;14.30;99.90;;;;;;7352760;32;20194;-65
2022/09/19 14:54:55;;;;;;;7.72;0.93;;;14.30;99.90;;;;;;7349397;32;20125;-65
2022/09/19 14:59:00;;;;;;;4.30;0.93;;;14.30;99.90;;;;;;7359226;32;20198;-65
2022/09/19 15:03:10;;;;;;;11.85;1.60;;;14.20;99.90;;;;;;7351922;32;20150;-64
2022/09/19 15:07:11;;;;;;;5.85;1.17;;;14.20;99.90;;;;;;7355909;32;20134;-64
2022/09/19 15:11:15;;;;;;;5.62;1.20;;;14.10;99.90;;;;;;7355708;32;20111;-65
2022/09/19 15:15:18;;;;;;;3.53;0.95;;;14.20;99.90;;;;;;7362141;32;20203;-64
2022/09/19 15:19:20;;;;;;;5.10;0.90;;;14.00;99.90;;;;;;7361439;32;20178;-63
2022/09/19 15:23:27;;;;;;;9.13;1.08;;;14.00;99.90;;;;;;7363002;32;20577;-63
2022/09/19 15:27:33;;;;;;;5.80;0.93;;;13.90;99.90;;;;;;7361375;32;20530;-63
2022/09/19 15:31:35;;;;;;;5.85;0.60;;;13.90;99.90;;;;;;7366894;32;21546;-63
2022/09/19 15:35:40;;;;;;;3.42;0.55;;;13.90;99.90;;;;;;7361824;32;20242;-63
2022/09/19 15:39:43;;;;;;;4.53;1.00;;;13.80;99.90;;;;;;7367879;32;20729;-63
2022/09/19 15:43:46;;;;;;;3.97;0.57;;;13.80;99.90;;;;;;7367436;32;20095;-64
2022/09/19 15:47:48;;;;;;;4.90;0.60;;;13.70;99.90;;;;;;7373229;32;20111;-64
2022/09/19 15:51:56;;;;;;;2.08;0.55;;;13.60;99.90;;;;;;7368543;32;20095;-64
2022/09/19 15:56:02;;;;;;;6.37;1.25;;;13.60;99.90;;;;;;7372670;32;20239;-65
2022/09/19 16:00:24;;;;;;;4.15;0.43;;;13.50;99.90;;;;;;7377879;32;20107;-64
2022/09/19 16:04:26;;;;;;;5.65;0.50;;;13.50;99.90;;;;;;7372053;32;20189;-65
2022/09/19 16:12:51;;;;;;;3.53;1.10;;;13.30;99.90;;;;;;7365906;32;20454;-65
2022/09/19 16:16:54;;;;;;;4.87;1.10;;;13.30;99.90;;;;;;7370977;32;20150;-65
2022/09/19 16:21:08;;;;;;;6.97;2.15;;;13.20;99.90;;;;;;7362118;32;20130;-64
2022/09/19 16:25:12;;;;;;;7.20;2.37;;;13.20;99.90;;;;;;7370830;32;20202;-65
2022/09/19 16:29:14;;;;;;;9.18;2.30;;;13.10;99.90;;;;;;7373064;32;20106;-64
2022/09/19 16:33:17;;;;;;;11.95;2.85;;;13.20;99.90;;;;;;7379068;32;20095;-65
2022/09/19 16:37:38;;;;;;;5.10;1.45;;;13.10;99.90;;;;;;7382373;32;20636;-65
2022/09/19 16:41:42;;;;;;;8.98;1.90;;;13.20;99.90;;;;;;7364342;32;20125;-65
2022/09/19 16:45:44;;;;;;;3.62;1.20;;;13.20;99.90;;;;;;7363314;32;20102;-64
2022/09/19 16:49:48;;;;;;;9.05;1.55;;;13.20;99.90;;;;;;7360233;32;20157;-65
2022/09/19 16:53:50;;;;;;;5.85;0.93;;;13.10;99.90;;;;;;7372119;32;20518;-65
2022/09/19 16:57:59;;;;;;;4.65;0.82;;;13.30;99.90;;;;;;7369540;32;20182;-65
2022/09/19 17:02:01;;;;;;;6.93;1.45;;;13.30;99.90;;;;;;7364928;32;20507;-65
2022/09/19 17:06:03;;;;;;;4.30;0.82;;;13.20;99.90;;;;;;7362347;32;20567;-65
2022/09/19 17:10:06;;;;;;;6.78;1.08;;;13.20;99.90;;;;;;7365893;32;20152;-65
2022/09/19 17:14:18;;;;;;;4.30;0.82;;;13.10;99.90;;;;;;7364228;32;20189;-64
2022/09/19 17:18:20;;;;;;;6.82;0.77;;;13.00;99.90;;;;;;7364609;32;20099;-63
2022/09/19 17:22:22;;;;;;;5.95;1.25;;;12.90;99.90;;;;;;7362539;32;20103;-63
2022/09/19 17:26:23;;;;;;;4.68;1.10;;;12.80;99.90;;;;;;7364046;32;20497;-63
2022/09/19 17:30:25;;;;;;;7.18;1.40;;;12.80;99.90;;;;;;7362780;32;20103;-64
2022/09/19 17:34:27;;;;;;;7.70;1.10;;;12.70;99.90;;;;;;7374637;32;20513;-64
2022/09/19 17:38:30;;;;;;;3.47;1.27;;;12.70;99.90;;;;;;7358894;32;20648;-64
2022/09/19 17:42:32;;;;;;;6.40;1.33;;;12.70;99.90;;;;;;7374468;32;20095;-65
2022/09/19 17:46:33;;;;;;;4.72;1.20;;;12.60;99.90;;;;;;7364446;32;20649;-65
2022/09/19 17:50:35;;;;;;;10.50;1.80;;;12.60;99.90;;;;;;7368865;32;20117;-61
2022/09/19 17:54:38;;;;;;;9.02;1.35;;;12.60;99.90;;;;;;7359404;32;20114;-62
2022/09/19 17:58:40;;;;;;;6.32;2.03;;;12.60;99.90;;;;;;7361151;32;20146;-62
2022/09/19 18:07:03;;;;;;;6.30;1.75;;;12.60;99.90;;;;;;7358405;32;20146;-62
2022/09/19 18:11:05;;;;;;;5.95;1.58;;;12.50;99.90;;;;;;7360619;32;20112;-60
2022/09/19 18:15:12;;;;;;;7.00;2.08;;;12.60;99.90;;;;;;7366926;32;20111;-60
2022/09/19 18:19:13;;;;;;;5.85;1.37;;;12.60;99.90;;;;;;7361957;32;20130;-60
2022/09/19 18:23:15;;;;;;;6.07;1.30;;;12.60;99.90;;;;;;7362515;32;20100;-60
2022/09/19 18:27:17;;;;;;;7.60;1.15;;;12.60;99.90;;;;;;7360150;32;20534;-59
2022/09/19 18:31:18;;;;;;;5.45;1.17;;;12.60;99.90;;;;;;7373645;32;20505;-60
2022/09/19 18:35:20;;;;;;;5.28;1.40;;;12.60;99.90;;;;;;7358988;32;20104;-60
2022/09/19 18:39:22;;;;;;;7.25;2.12;;;12.60;99.90;;;;;;7364230;32;20099;-61
2022/09/19 18:43:23;;;;;;;11.25;2.30;;;12.60;99.90;;;;;;7361583;32;20102;-62
2022/09/19 18:47:27;;;;;;;9.38;1.92;;;12.60;99.90;;;;;;7368260;32;20119;-60
2022/09/19 18:51:29;;;;;;;7.68;1.87;;;12.40;99.90;;;;;;7377351;32;20277;-61
2022/09/19 18:55:34;;;;;;;10.15;2.10;;;12.30;99.90;;;;;;7371847;32;20107;-61
2022/09/19 18:59:36;;;;;;;10.55;2.47;;;12.20;99.90;;;;;;7364858;32;20120;-61
2022/09/19 19:03:39;;;;;;;9.55;2.33;;;12.10;99.90;;;;;;7366098;32;20276;-63
2022/09/19 19:07:41;;;;;;;9.25;2.30;;;12.00;99.90;;;;;;7369484;32;20096;-63
2022/09/19 19:11:42;;;;;;;7.22;1.75;;;12.10;99.90;;;;;;7366765;32;20475;-62
2022/09/19 19:15:44;;;;;;;5.05;1.42;;;12.10;99.90;;;;;;7370383;32;20155;-63
2022/09/19 19:19:46;;;;;;;4.93;1.33;;;12.20;99.90;;;;;;7372957;32;20229;-63
2022/09/19 19:23:48;;;;;;;7.22;1.70;;;12.10;99.90;;;;;;7370846;32;20174;-61
2022/09/19 19:27:50;;;;;;;5.03;1.25;;;12.10;99.90;;;;;;7374844;32;21044;-63
2022/09/19 19:31:53;;;;;;;5.03;1.50;;;12.00;99.90;;;;;;7366339;32;20542;-63
2022/09/19 19:35:56;;;;;;;8.50;1.77;;;12.00;99.90;;;;;;7361596;32;20108;-62
2022/09/19 19:39:58;;;;;;;9.48;1.65;;;12.00;99.90;;;;;;7365134;32;20107;-62
2022/09/19 19:44:00;;;;;;;11.95;2.15;;;11.90;99.90;;;;;;7367423;32;20163;-62
2022/09/19 19:48:02;;;;;;;9.15;1.65;;;11.80;99.90;;;;;;7362956;32;20247;-62
2022/09/19 19:52:03;;;;;;;7.00;1.45;;;11.70;99.90;;;;;;7373978;32;20527;-63
2022/09/19 19:56:27;;;;;;;10.18;1.73;;;11.70;99.90;;;;;;7369994;32;20124;-64
2022/09/19 20:00:28;;;;;;;7.10;2.10;;;11.50;99.90;;;;;;7362281;32;20648;-64
2022/09/19 20:04:30;;;;;;;14.98;1.70;;;11.50;99.90;;;;;;7365507;32;20551;-63
2022/09/19 20:08:33;;;;;;;11.23;1.50;;;11.50;99.90;;;;;;7360444;32;20107;-62
2022/09/19 20:12:35;;;;;;;7.50;1.27;;;11.40;99.90;;;;;;7367276;32;20737;-62
2022/09/19 20:16:39;;;;;;;11.93;1.70;;;11.50;99.90;;;;;;7364596;32;20180;-63
2022/09/19 20:20:41;;;;;;;7.43;1.33;;;11.50;99.90;;;;;;7364557;32;20186;-63
2022/09/19 20:24:43;;;;;;;9.55;1.12;;;11.60;99.90;;;;;;7366044;32;20224;-63
2022/09/19 20:28:49;;;;;;;6.20;1.45;;;11.50;99.90;;;;;;7367651;32;20098;-63
2022/09/19 20:32:51;;;;;;;10.88;1.42;;;11.50;99.90;;;;;;7357842;32;20130;-64
2022/09/19 20:36:52;;;;;;;9.82;1.27;;;11.40;99.90;;;;;;7367188;32;20095;-63
2022/09/19 20:40:56;;;;;;;12.55;1.42;;;11.50;99.90;;;;;;7374549;32;20238;-64
2022/09/19 20:44:57;;;;;;;9.60;1.30;;;11.40;99.90;;;;;;7363133;32;20107;-61
2022/09/19 20:49:03;;;;;;;7.10;1.48;;;11.40;99.90;;;;;;7363411;32;20211;-62
2022/09/19 20:53:04;;;;;;;9.77;1.55;;;11.40;99.90;;;;;;7366335;32;20756;-62
2022/09/19 20:57:06;;;;;;;9.73;1.35;;;11.30;99.90;;;;;;7362645;32;20129;-61
2022/09/19 21:01:11;;;;;;;10.35;1.50;;;11.30;99.90;;;;;;7361014;32;20174;-62
2022/09/19 21:05:13;;;;;;;13.23;1.65;;;11.30;99.90;;;;;;7362257;32;20107;-62
2022/09/19 21:09:14;;;;;;;11.80;1.25;;;11.20;99.90;;;;;;7356175;32;20201;-62
2022/09/19 21:13:18;;;;;;;10.55;1.65;;;11.00;99.90;;;;;;7361194;32;20222;-62
2022/09/19 21:17:19;;;;;;;10.43;1.40;;;11.00;99.90;;;;;;7371587;32;20125;-63
2022/09/19 21:21:24;;;;;;;11.10;1.60;;;10.80;99.90;;;;;;7360879;32;20190;-63
2022/09/19 21:25:25;;;;;;;7.00;1.55;;;10.70;99.90;;;;;;7362712;32;20216;-62
2022/09/19 21:29:27;;;;;;;8.90;1.83;;;10.50;99.90;;;;;;7353828;32;20498;-62
2022/09/19 21:33:30;;;;;;;9.75;1.85;;;10.40;99.90;;;;;;7353180;32;20211;-64
2022/09/19 21:37:31;;;;;;;8.07;2.03;;;10.30;99.90;;;;;;7359140;32;20201;-63
2022/09/19 21:41:36;;;;;;;9.90;2.25;;;10.20;99.90;;;;;;7365501;32;20243;-63
2022/09/19 21:45:37;;;;;;;10.30;2.97;;;10.10;99.90;;;;;;7346713;32;20197;-62
2022/09/19 21:49:39;;;;;;;14.70;4.53;;;10.00;99.90;;;;;;7356964;32;20164;-63